Time;durP1;ratioP1;P1;durP2;ratioP2;P2;SDS_P1;SDS_P2;PMS_P1;PMS_P2;Temp;Humidity;BMP_temperature;BMP_pressure;BME280_temperature;BME280_humidity;BME280_pressure;Samples;Min_cycle;Max_cycle;Signal;HPM_P1;HPM_P2
2022/01/02 00:00:43;;;;;;;7.13;4.80;;;;;;;10.76;77.04;101726.84;5051523;28;20036;-74
2022/01/02 00:03:08;;;;;;;10.57;3.92;;;;;;;10.74;77.05;101732.06;5037904;28;20157;-75
2022/01/02 00:05:38;;;;;;;7.93;4.70;;;;;;;10.75;76.85;101736.44;5056176;28;20119;-75
2022/01/02 00:08:10;;;;;;;10.10;4.13;;;;;;;10.75;77.03;101740.81;5063600;28;20042;-74
2022/01/02 00:10:45;;;;;;;7.47;4.43;;;;;;;10.75;76.88;101736.44;5071630;28;20032;-75
2022/01/02 00:13:14;;;;;;;6.50;3.35;;;;;;;10.78;76.87;101729.47;5069479;28;20024;-73
2022/01/02 00:15:41;;;;;;;8.55;4.00;;;;;;;10.81;76.61;101734.72;5070841;28;20119;-74
2022/01/02 00:18:12;;;;;;;9.90;5.03;;;;;;;10.85;76.43;101745.19;5083570;28;20550;-74
2022/01/02 00:20:48;;;;;;;6.38;4.57;;;;;;;10.87;76.47;101746.06;5052125;28;20055;-73
2022/01/02 00:23:21;;;;;;;10.27;4.53;;;;;;;10.87;76.95;101751.31;5078896;28;20106;-75
2022/01/02 00:25:53;;;;;;;7.20;3.78;;;;;;;10.88;76.35;101760.94;5054596;28;20036;-75
2022/01/02 00:28:19;;;;;;;5.85;3.95;;;;;;;10.90;76.29;101760.94;5049837;28;20028;-74
2022/01/02 00:30:46;;;;;;;10.85;4.50;;;;;;;10.90;76.46;101748.72;5070434;28;20043;-75
2022/01/02 00:33:12;;;;;;;13.70;4.03;;;;;;;10.92;76.46;101751.34;5065764;28;20029;-74
2022/01/02 00:35:38;;;;;;;6.82;4.78;;;;;;;10.95;76.73;101753.06;5053553;28;20044;-74
2022/01/02 00:38:15;;;;;;;6.25;3.97;;;;;;;10.94;76.48;101749.56;5068297;28;20111;-74
2022/01/02 00:40:45;;;;;;;8.90;3.53;;;;;;;10.93;76.95;101739.94;5073855;28;20036;-74
2022/01/02 00:43:13;;;;;;;7.20;4.25;;;;;;;10.94;76.62;101725.09;5074380;28;20042;-74
2022/01/02 00:45:51;;;;;;;4.68;3.60;;;;;;;10.93;77.38;101732.09;5073640;28;20032;-73
2022/01/02 00:48:24;;;;;;;7.07;4.85;;;;;;;10.88;77.67;101733.84;5072180;28;20112;-73
2022/01/02 00:50:56;;;;;;;12.00;4.55;;;;;;;10.83;78.46;101738.19;5060613;28;20091;-72
2022/01/02 00:53:25;;;;;;;6.82;3.92;;;;;;;10.82;78.52;101744.31;5078908;28;20086;-73
2022/01/02 00:55:56;;;;;;;9.60;4.25;;;;;;;10.78;78.89;101740.81;5048816;28;20033;-72
2022/01/02 00:58:30;;;;;;;6.85;4.50;;;;;;;10.74;79.82;101737.28;5074670;28;20537;-72
2022/01/02 01:00:59;;;;;;;5.20;4.00;;;;;;;10.70;80.13;101743.44;5074204;28;20032;-72
2022/01/02 01:03:31;;;;;;;6.63;3.87;;;;;;;10.67;80.64;101738.16;5051337;28;20041;-72
2022/01/02 01:06:02;;;;;;;6.93;4.80;;;;;;;10.64;81.04;101737.28;5076731;28;20028;-72
2022/01/02 01:08:29;;;;;;;;;;;;;;;10.68;80.36;101729.44;5079549;28;20028;-73
2022/01/02 01:10:56;;;;;;;9.95;5.88;;;;;;;10.61;81.26;101729.44;5062766;28;19912;-73
2022/01/02 01:13:23;;;;;;;8.27;4.47;;;;;;;10.59;81.58;101716.31;5035669;28;20040;-72
2022/01/02 01:15:49;;;;;;;10.75;4.80;;;;;;;10.58;81.84;101717.19;5058941;28;20523;-74
2022/01/02 01:18:15;;;;;;;9.00;4.13;;;;;;;10.57;82.53;101705.84;5080011;28;20032;-73
2022/01/02 01:20:43;;;;;;;8.30;4.85;;;;;;;10.55;82.55;101704.94;5033229;28;20929;-74
2022/01/02 01:23:12;;;;;;;9.65;4.60;;;;;;;10.57;82.68;101702.31;5073682;28;20515;-72
2022/01/02 01:25:43;;;;;;;9.40;4.82;;;;;;;10.53;83.30;101701.44;5030516;28;20029;-72
2022/01/02 01:28:09;;;;;;;7.20;4.85;;;;;;;10.53;83.29;101708.41;5066618;28;20024;-70
2022/01/02 01:30:34;;;;;;;13.48;5.63;;;;;;;10.50;83.02;101698.84;5051853;28;20044;-74
2022/01/02 01:33:00;;;;;;;12.63;4.55;;;;;;;10.49;82.94;101704.06;5050810;28;20504;-73
2022/01/02 01:35:26;;;;;;;16.83;5.13;;;;;;;10.50;82.93;101687.44;5073130;28;20459;-71
2022/01/02 01:37:51;;;;;;;10.35;4.93;;;;;;;10.50;83.20;101692.69;5056414;28;20044;-73
2022/01/02 01:40:18;;;;;;;10.05;4.60;;;;;;;10.55;83.14;101681.34;5057679;28;20478;-73
2022/01/02 01:42:57;;;;;;;10.63;4.97;;;;;;;10.58;83.31;101672.63;5035754;28;20035;-73
2022/01/02 01:47:49;;;;;;;10.43;5.10;;;;;;;10.65;83.38;101668.28;5077571;28;20028;-74
2022/01/02 01:50:16;;;;;;;12.27;5.38;;;;;;;10.69;83.40;101668.28;5070237;28;20028;-72
2022/01/02 01:52:42;;;;;;;12.27;5.28;;;;;;;10.73;82.64;101669.13;5073346;28;20123;-74
2022/01/02 01:55:09;;;;;;;12.02;5.10;;;;;;;10.70;83.02;101670.03;5062802;28;20020;-73
2022/01/02 01:57:35;;;;;;;11.07;5.78;;;;;;;10.73;82.68;101666.50;5050187;28;20084;-73
2022/01/02 02:00:05;;;;;;;11.52;4.63;;;;;;;10.71;82.67;101656.03;5053419;28;20082;-71
2022/01/02 02:02:31;;;;;;;10.02;4.60;;;;;;;10.71;82.41;101649.94;5063480;28;20058;-74
2022/01/02 02:04:56;;;;;;;10.73;5.68;;;;;;;10.73;82.81;101649.06;5064763;28;20029;-72
2022/01/02 02:07:27;;;;;;;10.77;4.78;;;;;;;10.70;82.52;101630.72;5043670;28;20086;-72
2022/01/02 02:12:19;;;;;;;7.07;4.55;;;;;;;10.72;82.61;101628.94;5079718;28;20126;-73
2022/01/02 02:14:45;;;;;;;10.75;4.57;;;;;;;10.71;82.84;101623.72;5055869;28;20036;-71
2022/01/02 02:17:11;;;;;;;13.35;7.43;;;;;;;10.68;83.05;101621.09;5043258;28;20039;-73
2022/01/02 02:19:37;;;;;;;13.60;4.85;;;;;;;10.73;83.05;101622.84;5070065;28;20023;-72
2022/01/02 02:22:03;;;;;;;10.65;4.60;;;;;;;10.77;82.94;101610.59;5040468;28;20450;-73
2022/01/02 02:24:29;;;;;;;10.32;4.43;;;;;;;10.81;82.75;101608.84;5068150;28;20021;-73
2022/01/02 02:26:54;;;;;;;17.05;7.00;;;;;;;10.82;82.88;101594.84;5057698;28;20034;-72
2022/01/02 02:29:20;;;;;;;8.05;4.70;;;;;;;10.82;82.90;101607.97;5056194;28;20024;-73
2022/01/02 02:31:45;;;;;;;13.43;5.18;;;;;;;10.81;82.62;101599.22;5040515;28;20040;-72
2022/01/02 02:34:11;;;;;;;26.23;9.95;;;;;;;10.77;82.61;101594.00;5054859;28;20036;-71
2022/01/02 02:36:36;;;;;;;22.50;7.75;;;;;;;10.72;82.32;101594.88;5051069;28;20100;-73
2022/01/02 02:39:03;;;;;;;32.63;14.38;;;;;;;10.64;82.04;101578.25;5033912;28;20036;-72
2022/01/02 02:41:33;;;;;;;11.95;5.95;;;;;;;10.60;82.04;101584.38;5035267;28;20127;-71
2022/01/02 02:44:06;;;;;;;8.63;5.30;;;;;;;10.56;82.32;101580.91;5076569;28;20036;-73
2022/01/02 02:49:15;;;;;;;9.43;4.78;;;;;;;10.47;83.10;101578.25;5062694;28;20039;-73
2022/01/02 02:54:20;;;;;;;7.30;4.78;;;;;;;10.40;83.00;101576.50;5062399;28;20054;-73
2022/01/02 02:57:00;;;;;;;6.70;4.80;;;;;;;10.35;83.37;101579.13;5064673;28;20093;-72
2022/01/02 02:59:31;;;;;;;27.05;11.75;;;;;;;10.29;83.97;101542.44;5067012;28;20029;-72
2022/01/02 03:01:58;;;;;;;13.65;7.05;;;;;;;10.29;83.73;101546.81;5066638;28;20484;-71
2022/01/02 03:04:24;;;;;;;8.20;5.07;;;;;;;10.27;83.76;101549.44;5048746;28;20116;-72
2022/01/02 03:06:50;;;;;;;11.75;5.47;;;;;;;10.25;84.06;101553.75;5065518;28;20037;-72
2022/01/02 03:09:25;;;;;;;7.10;4.63;;;;;;;10.26;83.86;101557.25;5043752;28;20039;-74
2022/01/02 03:11:50;;;;;;;13.63;5.63;;;;;;;10.24;84.03;101541.53;5043359;28;20036;-71
2022/01/02 03:14:15;;;;;;;10.80;6.20;;;;;;;10.23;84.34;101555.53;5034418;28;20446;-71
2022/01/02 03:16:41;;;;;;;17.35;6.75;;;;;;;10.24;84.32;101554.63;5046463;28;20039;-72
2022/01/02 03:19:07;;;;;;;9.20;5.28;;;;;;;10.22;84.36;101553.78;5037573;28;20017;-71
2022/01/02 03:21:32;;;;;;;8.30;4.70;;;;;;;10.21;84.46;101550.28;5041168;28;20186;-73
2022/01/02 03:23:58;;;;;;;11.88;4.93;;;;;;;10.22;84.85;101554.63;5053238;28;20032;-74
2022/01/02 03:26:23;;;;;;;9.18;5.32;;;;;;;10.19;85.03;101545.91;5036227;28;20409;-74
2022/01/02 03:28:49;;;;;;;10.38;5.15;;;;;;;10.20;84.97;101558.13;5056977;28;20032;-72
2022/01/02 03:31:15;;;;;;;16.70;5.93;;;;;;;10.19;85.29;101562.50;5040911;28;20029;-72
2022/01/02 03:33:41;;;;;;;10.23;4.57;;;;;;;10.22;85.40;101561.63;5064663;28;20040;-71
2022/01/02 03:36:06;;;;;;;10.25;5.93;;;;;;;10.22;85.35;101566.88;5029777;28;20036;-72
2022/01/02 03:38:32;;;;;;;14.65;5.00;;;;;;;10.22;85.43;101546.78;5050723;28;20028;-72
2022/01/02 03:40:58;;;;;;;8.48;5.57;;;;;;;10.21;85.44;101550.28;5067146;28;20020;-72
2022/01/02 03:43:23;;;;;;;10.63;5.68;;;;;;;10.21;85.73;101566.00;5047211;28;20044;-72
2022/01/02 03:45:49;;;;;;;8.98;5.65;;;;;;;10.22;85.75;101559.00;5072317;28;20035;-74
2022/01/02 03:48:14;;;;;;;9.25;4.70;;;;;;;10.22;86.08;101561.63;5043887;28;20155;-72
2022/01/02 03:50:40;;;;;;;8.27;4.80;;;;;;;10.22;85.94;101561.63;5063501;28;20051;-71
2022/01/02 03:53:06;;;;;;;6.90;5.15;;;;;;;10.19;86.19;101557.25;5051570;28;20119;-72
2022/01/02 03:55:32;;;;;;;14.52;5.93;;;;;;;10.17;85.48;101542.41;5053468;28;20115;-72
2022/01/02 03:57:58;;;;;;;20.45;5.60;;;;;;;10.17;86.07;101539.78;5038555;28;20508;-72
2022/01/02 04:00:23;;;;;;;8.57;5.00;;;;;;;10.15;86.42;101529.31;5069719;28;20025;-72
2022/01/02 04:02:49;;;;;;;11.77;5.88;;;;;;;10.14;86.48;101537.16;5065120;28;20028;-71
2022/01/02 04:05:16;;;;;;;8.35;4.68;;;;;;;10.11;86.67;101535.41;5044920;28;20036;-73
2022/01/02 04:07:43;;;;;;;11.15;4.60;;;;;;;10.12;86.37;101520.59;5075790;28;20042;-73
2022/01/02 04:10:12;;;;;;;14.02;7.72;;;;;;;10.09;86.49;101516.22;5056021;28;20399;-72
2022/01/02 04:12:38;;;;;;;9.57;4.43;;;;;;;10.09;86.51;101510.13;5081996;28;20119;-72
2022/01/02 04:15:06;;;;;;;11.90;4.97;;;;;;;10.09;86.60;101512.72;5062800;28;20112;-72
2022/01/02 04:17:32;;;;;;;13.15;5.20;;;;;;;10.13;86.40;101493.50;5050559;28;20036;-73
2022/01/02 04:19:59;;;;;;;5.78;3.88;;;;;;;10.18;85.76;101482.16;5040336;28;20046;-71
2022/01/02 04:22:24;;;;;;;8.07;4.72;;;;;;;10.22;85.41;101483.91;5073899;28;20044;-72
2022/01/02 04:24:50;;;;;;;10.85;4.72;;;;;;;10.28;85.44;101484.78;5043326;28;20028;-72
2022/01/02 04:27:18;;;;;;;9.45;4.45;;;;;;;10.30;84.93;101489.16;5046116;28;20119;-72
2022/01/02 04:29:43;;;;;;;8.27;4.18;;;;;;;10.33;84.92;101491.78;5067655;28;20464;-73
2022/01/02 04:32:09;;;;;;;11.95;4.88;;;;;;;10.34;85.05;101484.81;5058840;28;20039;-73
2022/01/02 04:34:34;;;;;;;14.00;5.13;;;;;;;10.34;84.58;101483.09;5050867;28;20385;-71
2022/01/02 04:37:00;;;;;;;9.77;4.40;;;;;;;10.36;84.75;101501.44;5042325;28;20102;-71
2022/01/02 04:39:25;;;;;;;11.63;5.00;;;;;;;10.33;85.00;101497.03;5062430;28;20085;-72
2022/01/02 04:41:51;;;;;;;11.15;4.65;;;;;;;10.31;85.35;101493.50;5040671;28;20032;-71
2022/01/02 04:44:16;;;;;;;7.38;4.50;;;;;;;10.29;85.16;101476.06;5075907;28;20035;-72
2022/01/02 04:46:42;;;;;;;9.02;4.63;;;;;;;10.27;85.43;101481.31;5059702;28;20031;-73
2022/01/02 04:49:07;;;;;;;12.48;4.75;;;;;;;10.22;85.84;101483.06;5036174;28;20036;-73
2022/01/02 04:51:32;;;;;;;11.85;4.78;;;;;;;10.18;85.55;101462.97;5080311;28;20040;-72
2022/01/02 04:53:58;;;;;;;11.65;5.05;;;;;;;10.12;86.17;101461.22;5049309;28;20056;-72
2022/01/02 04:56:23;;;;;;;10.38;5.03;;;;;;;10.10;86.44;101462.09;5051702;28;20060;-72
2022/01/02 04:58:50;;;;;;;11.90;5.03;;;;;;;10.05;86.78;101455.09;5035960;28;20029;-72
2022/01/02 05:01:16;;;;;;;11.25;5.20;;;;;;;10.05;86.46;101449.00;5063434;28;20027;-72
2022/01/02 05:03:42;;;;;;;14.20;5.88;;;;;;;10.00;86.76;101441.16;5035486;28;20033;-71
2022/01/02 05:06:09;;;;;;;9.13;4.50;;;;;;;9.96;86.86;101431.53;5054409;28;20040;-73
2022/01/02 05:08:35;;;;;;;9.90;5.20;;;;;;;9.96;86.93;101428.06;5044637;28;20029;-72
2022/01/02 05:11:01;;;;;;;9.57;4.85;;;;;;;9.94;86.96;101408.84;5050535;28;20037;-73
2022/01/02 05:13:29;;;;;;;15.48;5.35;;;;;;;9.93;87.12;101402.75;5074637;28;20090;-73
2022/01/02 05:15:55;;;;;;;7.22;4.28;;;;;;;9.90;87.45;101392.28;5055434;28;20032;-71
2022/01/02 05:18:21;;;;;;;8.60;4.85;;;;;;;9.90;87.20;101400.13;5040554;28;20058;-72
2022/01/02 05:20:47;;;;;;;8.27;4.63;;;;;;;9.88;87.32;101387.03;5045765;28;20060;-72
2022/01/02 05:23:14;;;;;;;9.52;4.40;;;;;;;9.87;87.45;101384.44;5061264;28;20511;-71
2022/01/02 05:25:39;;;;;;;9.10;4.45;;;;;;;9.89;87.00;101382.66;5062618;28;20121;-72
2022/01/02 05:28:05;;;;;;;6.63;4.45;;;;;;;10.02;86.82;101389.63;5069623;28;20029;-72
2022/01/02 05:30:30;;;;;;;6.93;4.25;;;;;;;10.02;86.53;101387.03;5040774;28;20035;-72
2022/01/02 05:32:56;;;;;;;11.60;5.32;;;;;;;9.95;87.10;101385.28;5058859;28;20040;-72
2022/01/02 05:35:21;;;;;;;13.40;5.25;;;;;;;9.92;87.38;101379.19;5057837;28;20064;-72
2022/01/02 05:37:47;;;;;;;10.55;4.15;;;;;;;9.89;87.13;101377.44;5041079;28;20050;-72
2022/01/02 05:40:12;;;;;;;9.30;5.15;;;;;;;9.86;87.30;101369.59;5057097;28;20044;-74
2022/01/02 05:42:38;;;;;;;15.02;5.05;;;;;;;9.83;87.50;101366.97;5073002;28;20062;-72
2022/01/02 05:45:04;;;;;;;7.45;4.57;;;;;;;9.83;87.67;101364.38;5058885;28;20365;-72
2022/01/02 05:47:29;;;;;;;7.60;3.97;;;;;;;9.81;87.99;101360.84;5055645;28;20048;-73
2022/01/02 05:49:55;;;;;;;8.18;4.57;;;;;;;9.78;88.03;101360.84;5083449;28;20374;-73
2022/01/02 05:52:21;;;;;;;7.30;4.55;;;;;;;9.77;88.04;101356.50;5035457;28;20497;-73
2022/01/02 05:54:46;;;;;;;9.23;4.45;;;;;;;9.76;88.10;101349.53;5034689;28;20568;-72
2022/01/02 05:57:14;;;;;;;10.75;4.45;;;;;;;9.76;88.21;101352.16;5031840;28;20116;-73
2022/01/02 05:59:40;;;;;;;11.38;4.82;;;;;;;9.76;87.95;101339.06;5035333;28;20050;-72
2022/01/02 06:02:06;;;;;;;10.30;4.75;;;;;;;9.74;88.20;101328.59;5033668;28;20126;-72
2022/01/02 06:04:31;;;;;;;12.18;4.20;;;;;;;9.73;88.65;101320.75;5039439;28;20060;-72
2022/01/02 06:06:57;;;;;;;8.73;4.28;;;;;;;9.71;88.18;101308.53;5038810;28;20084;-72
2022/01/02 06:09:22;;;;;;;10.23;4.72;;;;;;;9.74;87.94;101301.53;5050310;28;20063;-72
2022/01/02 06:11:47;;;;;;;9.50;4.38;;;;;;;9.75;87.70;101282.34;5031836;28;20032;-70
2022/01/02 06:14:13;;;;;;;10.50;5.97;;;;;;;9.80;87.28;101280.59;5034865;28;20064;-73
2022/01/02 06:16:38;;;;;;;10.32;4.32;;;;;;;9.82;86.92;101278.84;5072774;28;20064;-72
2022/01/02 06:19:06;;;;;;;10.43;4.57;;;;;;;9.84;86.95;101277.97;5072114;28;20077;-71
2022/01/02 06:21:31;;;;;;;11.30;5.18;;;;;;;9.87;86.61;101271.88;5048360;28;20037;-72
2022/01/02 06:23:57;;;;;;;10.82;3.55;;;;;;;9.90;86.11;101269.25;5036261;28;20102;-72
2022/01/02 06:26:22;;;;;;;5.60;4.38;;;;;;;9.90;86.06;101258.78;5042044;28;20040;-71
2022/01/02 06:28:49;;;;;;;10.85;4.50;;;;;;;9.91;85.99;101255.25;5033998;28;20024;-72
2022/01/02 06:31:14;;;;;;;9.85;4.53;;;;;;;9.95;85.39;101238.66;5036794;28;20094;-71
2022/01/02 06:33:39;;;;;;;7.43;4.68;;;;;;;9.97;85.78;101236.03;5034782;28;20052;-71
2022/01/02 06:36:05;;;;;;;15.85;4.88;;;;;;;9.94;85.94;101216.00;5036954;28;20042;-71
2022/01/02 06:38:31;;;;;;;12.48;5.65;;;;;;;9.94;86.05;101208.16;5060526;28;20147;-70
2022/01/02 06:40:56;;;;;;;11.40;6.60;;;;;;;9.91;86.06;101195.03;5052731;28;20028;-72
2022/01/02 06:43:22;;;;;;;6.65;4.18;;;;;;;9.87;86.05;101185.50;5049105;28;20032;-72
2022/01/02 06:45:47;;;;;;;10.25;5.32;;;;;;;9.84;86.17;101177.63;5055910;28;20039;-72
2022/01/02 06:48:14;;;;;;;8.57;5.47;;;;;;;9.78;86.44;101168.03;5076861;28;20036;-72
2022/01/02 06:50:39;;;;;;;10.80;5.22;;;;;;;9.78;86.30;101156.72;5071992;28;20032;-73
2022/01/02 06:53:06;;;;;;;9.85;4.40;;;;;;;9.77;85.95;101136.63;5044811;28;20061;-73
2022/01/02 06:55:31;;;;;;;6.03;4.65;;;;;;;9.75;85.89;101125.31;5087996;28;20089;-71
2022/01/02 06:57:57;;;;;;;10.60;4.43;;;;;;;9.76;85.30;101122.69;5090034;28;20052;-72
2022/01/02 07:00:23;;;;;;;10.18;4.40;;;;;;;9.77;85.18;101123.56;5065856;28;20044;-71
2022/01/02 07:02:48;;;;;;;9.93;4.40;;;;;;;9.77;85.39;101119.22;5066374;28;20033;-71
2022/01/02 07:05:13;;;;;;;20.27;3.78;;;;;;;9.77;85.02;101126.16;5053029;28;20032;-70
2022/01/02 07:07:43;;;;;;;9.68;4.20;;;;;;;9.79;84.62;101127.06;5090081;28;20028;-72
2022/01/02 07:10:13;;;;;;;6.97;3.88;;;;;;;9.83;83.91;101119.19;5047141;28;20032;-71
2022/01/02 07:12:39;;;;;;;7.45;3.38;;;;;;;9.86;84.15;101102.59;5075356;28;20118;-71
2022/01/02 07:15:08;;;;;;;8.77;3.42;;;;;;;9.95;83.06;101102.53;5087993;28;20553;-71
2022/01/02 07:17:34;;;;;;;4.82;3.38;;;;;;;9.98;82.81;101101.66;5057218;28;20040;-72
2022/01/02 07:20:02;;;;;;;7.47;3.42;;;;;;;9.98;83.23;101102.50;5068126;28;20031;-71
2022/01/02 07:22:28;;;;;;;4.57;3.78;;;;;;;9.97;83.04;101100.78;5065209;28;20039;-71
2022/01/02 07:24:56;;;;;;;8.85;3.55;;;;;;;9.96;83.10;101111.28;5073684;28;20029;-72
2022/01/02 07:27:21;;;;;;;6.90;3.65;;;;;;;9.95;83.14;101107.78;5049858;28;20064;-71
2022/01/02 07:29:48;;;;;;;4.75;3.55;;;;;;;9.95;82.83;101118.25;5066816;28;20055;-73
2022/01/02 07:32:14;;;;;;;11.75;4.10;;;;;;;9.97;82.74;101121.75;5065539;28;20495;-74
2022/01/02 07:34:40;;;;;;;7.60;3.78;;;;;;;9.95;82.98;101107.78;5063023;28;20031;-73
2022/01/02 07:37:06;;;;;;;6.47;4.47;;;;;;;9.96;82.50;101095.56;5062423;28;20033;-73
2022/01/02 07:39:31;;;;;;;10.35;4.07;;;;;;;9.94;82.44;101090.34;5043628;28;20434;-72
2022/01/02 07:41:57;;;;;;;11.02;3.70;;;;;;;9.94;83.15;101087.72;5068104;28;20503;-73
2022/01/02 07:44:22;;;;;;;12.23;3.78;;;;;;;9.95;82.49;101084.22;5036163;28;20039;-73
2022/01/02 07:46:47;;;;;;;6.68;3.72;;;;;;;10.01;81.63;101092.06;5064309;28;20013;-73
2022/01/02 07:49:13;;;;;;;4.43;2.97;;;;;;;10.05;81.18;101098.97;5031951;28;20094;-72
2022/01/02 07:51:41;;;;;;;9.40;3.67;;;;;;;10.06;81.57;101090.25;5034527;28;20062;-73
2022/01/02 07:54:06;;;;;;;10.82;3.50;;;;;;;10.03;81.54;101079.81;5065252;28;20037;-72
2022/01/02 07:56:32;;;;;;;5.53;3.47;;;;;;;10.03;81.68;101095.53;5072570;28;20105;-73
2022/01/02 07:58:58;;;;;;;5.60;3.55;;;;;;;10.00;82.00;101121.72;5054087;28;20077;-73
2022/01/02 08:01:24;;;;;;;5.85;3.60;;;;;;;9.98;82.37;101105.13;5048493;28;20024;-73
2022/01/02 08:03:51;;;;;;;7.38;3.22;;;;;;;9.96;83.05;101125.22;5064425;28;20048;-73
2022/01/02 08:06:17;;;;;;;9.38;3.70;;;;;;;9.91;82.97;101137.44;5052667;28;20036;-73
2022/01/02 08:08:46;;;;;;;6.40;3.30;;;;;;;9.89;83.03;101152.31;5046891;28;20435;-73
2022/01/02 08:11:18;;;;;;;5.20;3.22;;;;;;;9.87;83.26;101141.84;5055473;28;20025;-73
2022/01/02 08:13:44;;;;;;;8.23;3.67;;;;;;;9.83;83.69;101132.25;5060251;28;20044;-73
2022/01/02 08:16:14;;;;;;;4.72;3.35;;;;;;;9.81;83.93;101122.66;5067063;28;20024;-73
2022/01/02 08:18:42;;;;;;;3.63;2.90;;;;;;;9.82;83.40;101124.41;5064197;28;20472;-71
2022/01/02 08:21:08;;;;;;;5.60;3.30;;;;;;;9.83;83.46;101126.16;5043882;28;20037;-73
2022/01/02 08:23:34;;;;;;;8.43;3.33;;;;;;;9.83;83.79;101139.25;5056595;28;20207;-74
2022/01/02 08:26:01;;;;;;;5.22;3.42;;;;;;;9.83;83.59;101140.13;5045593;28;20460;-73
2022/01/02 08:28:29;;;;;;;4.30;3.42;;;;;;;9.84;83.76;101133.13;5051370;28;20028;-73
2022/01/02 08:30:55;;;;;;;6.80;3.35;;;;;;;9.84;83.79;101140.97;5045094;28;20410;-74
2022/01/02 08:33:20;;;;;;;5.38;3.50;;;;;;;9.85;83.52;101142.72;5063585;28;20434;-73
2022/01/02 08:35:48;;;;;;;8.85;3.83;;;;;;;9.88;83.16;101124.38;5074845;28;20058;-74
2022/01/02 08:38:15;;;;;;;7.28;3.40;;;;;;;9.89;82.97;101092.09;5038884;28;20029;-73
2022/01/02 08:40:42;;;;;;;3.47;3.15;;;;;;;9.92;82.61;101107.78;5049437;28;20127;-74
2022/01/02 08:43:08;;;;;;;7.25;2.90;;;;;;;9.95;82.71;101133.94;5064065;28;20110;-72
2022/01/02 08:45:35;;;;;;;10.68;3.17;;;;;;;9.98;82.11;101118.22;5065362;28;20055;-73
2022/01/02 08:48:06;;;;;;;4.22;2.90;;;;;;;10.03;81.01;101103.38;5076683;28;20534;-71
2022/01/02 08:50:32;;;;;;;5.53;3.30;;;;;;;10.09;81.26;101119.94;5052078;28;20063;-73
2022/01/02 08:52:59;;;;;;;5.35;3.03;;;;;;;10.11;81.07;101111.19;5075636;28;20055;-71
2022/01/02 08:55:28;;;;;;;9.73;3.35;;;;;;;10.20;80.13;101120.72;5041414;28;20041;-72
2022/01/02 08:57:54;;;;;;;4.18;3.08;;;;;;;10.28;79.72;101116.31;5056081;28;20044;-74
2022/01/02 09:00:20;;;;;;;3.95;2.97;;;;;;;10.36;79.20;101130.28;5082146;28;20111;-74
2022/01/02 09:02:45;;;;;;;5.00;3.35;;;;;;;10.44;79.33;101127.59;5050299;28;20128;-73
2022/01/02 09:05:11;;;;;;;4.60;3.30;;;;;;;10.52;78.58;101124.94;5048243;28;20597;-72
2022/01/02 09:07:36;;;;;;;8.40;4.55;;;;;;;10.56;78.06;101131.91;5035377;28;20037;-72
2022/01/02 09:10:03;;;;;;;5.70;3.80;;;;;;;10.58;77.81;101125.75;5056557;28;20033;-73
2022/01/02 09:12:29;;;;;;;6.68;3.90;;;;;;;10.61;78.17;101124.88;5070797;28;20028;-74
2022/01/02 09:14:54;;;;;;;6.75;3.70;;;;;;;10.62;78.06;101125.75;5053141;28;20044;-73
2022/01/02 09:17:20;;;;;;;5.78;3.70;;;;;;;10.66;77.73;101117.84;5063179;28;20044;-74
2022/01/02 09:19:45;;;;;;;7.78;4.75;;;;;;;10.72;76.99;101115.19;5055424;28;20028;-72
2022/01/02 09:22:11;;;;;;;6.28;4.00;;;;;;;10.80;77.39;101115.09;5067240;28;20106;-73
2022/01/02 09:24:36;;;;;;;10.63;4.18;;;;;;;10.95;77.69;101114.13;5053273;28;20109;-73
2022/01/02 09:27:02;;;;;;;6.45;3.92;;;;;;;11.09;76.75;101122.72;5061894;28;20033;-73
2022/01/02 09:29:28;;;;;;;9.65;4.40;;;;;;;11.31;76.57;101122.50;5069097;28;20024;-73
2022/01/02 09:31:53;;;;;;;4.90;4.15;;;;;;;11.43;76.07;101126.75;5050824;28;20449;-73
2022/01/02 09:34:19;;;;;;;5.97;3.90;;;;;;;12.15;75.55;101118.94;5049180;28;20039;-73
2022/01/02 09:36:44;;;;;;;11.45;4.72;;;;;;;13.39;73.71;101136.22;5049298;28;20407;-75
2022/01/02 09:39:11;;;;;;;9.63;5.15;;;;;;;15.05;67.36;101129.06;5039870;28;21236;-76
2022/01/02 09:41:38;;;;;;;10.73;4.55;;;;;;;16.51;63.86;101124.03;5050092;28;20096;-74
2022/01/02 09:44:05;;;;;;;5.82;4.40;;;;;;;18.02;60.59;101133.00;5065397;28;20043;-77
2022/01/02 09:46:31;;;;;;;10.48;4.78;;;;;;;18.91;55.98;101126.78;5049476;28;20036;-76
2022/01/02 09:48:56;;;;;;;7.47;4.20;;;;;;;18.56;54.46;101147.66;5068045;28;20028;-77
2022/01/02 09:51:25;;;;;;;7.60;4.43;;;;;;;17.63;55.60;101151.16;5065725;28;20369;-75
2022/01/02 09:53:54;;;;;;;7.05;4.63;;;;;;;17.58;56.04;101149.59;5061468;28;20063;-74
2022/01/02 09:56:21;;;;;;;5.03;4.40;;;;;;;17.15;56.41;101149.31;5046494;28;20036;-74
2022/01/02 09:58:48;;;;;;;6.20;4.13;;;;;;;16.43;57.42;101147.22;5045351;28;20294;-73
2022/01/02 10:01:21;;;;;;;7.10;4.60;;;;;;;16.16;60.03;101141.88;5062590;28;20037;-72
2022/01/02 10:03:50;;;;;;;14.85;5.40;;;;;;;17.69;57.88;101135.97;5055473;28;20048;-73
2022/01/02 10:06:17;;;;;;;11.65;4.90;;;;;;;19.29;53.76;101140.22;5062984;28;20127;-73
2022/01/02 10:08:43;;;;;;;6.38;4.18;;;;;;;20.46;52.48;101135.81;5040671;28;20030;-74
2022/01/02 10:11:22;;;;;;;9.52;4.70;;;;;;;21.60;47.69;101149.59;5031676;28;20025;-73
2022/01/02 10:14:01;;;;;;;8.82;4.55;;;;;;;22.79;46.81;101151.06;5061470;28;20044;-74
2022/01/02 10:16:37;;;;;;;9.82;4.57;;;;;;;23.52;44.62;101142.28;5041569;28;20488;-74
2022/01/02 10:19:28;;;;;;;7.22;3.97;;;;;;;23.46;48.36;101156.03;5066190;28;20021;-74
2022/01/02 10:21:58;;;;;;;6.18;3.83;;;;;;;21.22;44.92;101155.13;5055741;28;20033;-74
2022/01/02 10:24:47;;;;;;;7.07;4.55;;;;;;;19.72;49.90;101148.97;5058464;28;20055;-72
2022/01/02 10:27:17;;;;;;;7.03;3.50;;;;;;;17.86;51.56;101143.25;5053971;28;20028;-73
2022/01/02 10:29:50;;;;;;;7.38;4.45;;;;;;;16.69;56.39;101146.38;5062723;28;20398;-73
2022/01/02 10:32:26;;;;;;;11.55;4.05;;;;;;;15.93;58.73;101132.84;5070965;28;20102;-73
2022/01/02 10:34:55;;;;;;;6.82;4.70;;;;;;;15.29;59.41;101146.06;5061757;28;20074;-73
2022/01/02 10:37:25;;;;;;;11.88;4.55;;;;;;;14.78;61.81;101139.41;5063250;28;20033;-73
2022/01/02 10:39:50;;;;;;;5.72;3.85;;;;;;;14.40;62.85;101141.16;5031301;28;20457;-72
2022/01/02 10:42:18;;;;;;;7.93;4.50;;;;;;;14.01;63.67;101120.94;5039459;28;20086;-72
2022/01/02 10:44:45;;;;;;;9.60;5.07;;;;;;;13.74;64.85;101122.38;5051285;28;20036;-71
2022/01/02 10:47:16;;;;;;;9.05;5.15;;;;;;;13.52;65.85;101130.72;5065712;28;20041;-72
2022/01/02 10:50:08;;;;;;;10.85;5.70;;;;;;;13.44;66.74;101122.09;5056968;28;20481;-72
2022/01/02 10:52:35;;;;;;;8.05;3.92;;;;;;;13.20;67.71;101119.88;5059011;28;20051;-72
2022/01/02 10:55:05;;;;;;;6.68;4.53;;;;;;;13.08;68.20;101129.72;5064033;28;20040;-71
2022/01/02 10:57:34;;;;;;;7.63;4.60;;;;;;;12.93;68.93;101117.72;5079261;28;20036;-71
2022/01/02 11:00:00;;;;;;;10.82;4.63;;;;;;;12.79;69.08;101117.09;5041793;28;20037;-71
2022/01/02 11:02:27;;;;;;;10.63;5.38;;;;;;;12.70;70.33;101123.38;5069237;28;20537;-71
2022/01/02 11:05:03;;;;;;;8.30;4.53;;;;;;;12.63;69.84;101117.31;5058058;28;20016;-71
2022/01/02 11:07:36;;;;;;;10.50;4.82;;;;;;;12.55;70.74;101110.44;5067333;28;20029;-72
2022/01/02 11:10:02;;;;;;;12.18;5.63;;;;;;;12.44;71.85;101122.00;5049614;28;20039;-73
2022/01/02 11:12:28;;;;;;;9.80;4.80;;;;;;;12.40;71.10;101125.56;5060826;28;20536;-72
2022/01/02 11:14:54;;;;;;;7.45;4.15;;;;;;;12.36;72.04;101116.00;5051860;28;20068;-73
2022/01/02 11:17:19;;;;;;;10.70;4.95;;;;;;;12.46;71.26;101111.47;5068314;28;20048;-72
2022/01/02 11:19:45;;;;;;;7.60;4.47;;;;;;;13.73;69.60;101110.09;5046139;28;20036;-74
2022/01/02 11:22:38;;;;;;;8.25;5.10;;;;;;;14.81;67.59;101118.25;5035319;28;20029;-73
2022/01/02 11:25:20;;;;;;;8.20;3.85;;;;;;;17.38;63.09;101121.16;5055533;28;20523;-73
2022/01/02 11:28:03;;;;;;;12.25;4.30;;;;;;;19.27;56.56;101117.31;5063759;28;20043;-73
2022/01/02 11:30:35;;;;;;;7.75;4.63;;;;;;;18.43;54.55;101111.91;5065366;28;20024;-72
2022/01/02 11:33:06;;;;;;;10.75;4.80;;;;;;;17.23;56.77;101120.78;5074329;28;20051;-74
2022/01/02 11:35:33;;;;;;;6.25;4.40;;;;;;;16.24;58.71;101110.75;5068978;28;20119;-74